Time;durP1;ratioP1;P1;durP2;ratioP2;P2;SDS_P1;SDS_P2;PMS_P1;PMS_P2;Temp;Humidity;BMP_temperature;BMP_pressure;BME280_temperature;BME280_humidity;BME280_pressure;Samples;Min_cycle;Max_cycle;Signal;HPM_P1;HPM_P2
2020/12/23 00:00:35;;;;;;;4.40;3.95;;;12.60;99.90;;;;;;5136274;27;20199;-85
2020/12/23 00:03:01;;;;;;;3.80;3.50;;;12.60;99.90;;;;;;5127187;27;20199;-85
2020/12/23 00:05:29;;;;;;;5.50;3.85;;;12.50;99.90;;;;;;5132049;27;20525;-84
2020/12/23 00:07:55;;;;;;;8.70;6.00;;;12.50;99.90;;;;;;5119852;27;20192;-84
2020/12/23 00:10:21;;;;;;;4.80;4.10;;;12.50;99.90;;;;;;5134924;27;20207;-83
2020/12/23 00:12:47;;;;;;;6.07;4.70;;;12.50;99.90;;;;;;5135420;27;20207;-84
2020/12/23 00:15:14;;;;;;;4.32;3.90;;;12.50;99.90;;;;;;5116810;27;20201;-83
2020/12/23 00:17:40;;;;;;;5.05;4.28;;;12.50;99.90;;;;;;5127469;27;20195;-83
2020/12/23 00:20:06;;;;;;;4.20;3.80;;;12.50;99.90;;;;;;5130755;27;20207;-83
2020/12/23 00:22:33;;;;;;;3.90;3.60;;;12.50;99.90;;;;;;5135148;27;20196;-83
2020/12/23 00:25:00;;;;;;;4.88;4.00;;;12.50;99.90;;;;;;5121811;27;20217;-84
2020/12/23 00:27:26;;;;;;;4.10;3.63;;;12.50;99.90;;;;;;5116569;27;20685;-84
2020/12/23 00:29:52;;;;;;;4.50;3.75;;;12.50;99.90;;;;;;5132986;27;20233;-83
2020/12/23 00:32:19;;;;;;;4.47;3.78;;;12.50;99.90;;;;;;5123655;27;20200;-84
2020/12/23 00:34:46;;;;;;;4.13;3.70;;;12.50;99.90;;;;;;5116485;27;20193;-83
2020/12/23 00:37:12;;;;;;;3.65;3.35;;;12.50;99.90;;;;;;5130269;27;20695;-83
2020/12/23 00:39:39;;;;;;;5.60;4.65;;;12.50;99.90;;;;;;5117911;27;20225;-83
2020/12/23 00:42:05;;;;;;;4.80;4.22;;;12.50;99.90;;;;;;5114507;28;20200;-81
2020/12/23 00:44:32;;;;;;;4.57;4.00;;;12.50;99.90;;;;;;5114936;27;20216;-82
2020/12/23 00:46:58;;;;;;;4.07;3.67;;;12.50;99.90;;;;;;5120844;27;20256;-81
2020/12/23 00:49:24;;;;;;;5.30;4.18;;;12.50;99.90;;;;;;5114298;27;20265;-81
2020/12/23 00:51:51;;;;;;;4.38;3.67;;;12.50;99.90;;;;;;5129647;27;20196;-83
2020/12/23 00:54:17;;;;;;;5.65;3.80;;;12.50;99.90;;;;;;5127643;27;20544;-84
2020/12/23 00:56:44;;;;;;;4.55;3.70;;;12.50;99.90;;;;;;5125236;27;20200;-82
2020/12/23 00:59:11;;;;;;;5.30;4.05;;;12.50;99.90;;;;;;5115067;28;20196;-84
2020/12/23 01:01:37;;;;;;;4.57;4.15;;;12.50;99.90;;;;;;5122475;27;20192;-83
2020/12/23 01:04:03;;;;;;;6.90;4.70;;;12.50;99.90;;;;;;5118086;27;20216;-82
2020/12/23 01:06:29;;;;;;;5.55;4.97;;;12.40;99.90;;;;;;5115692;27;20192;-81
2020/12/23 01:08:56;;;;;;;3.95;3.55;;;12.50;99.90;;;;;;5114187;28;20861;-81
2020/12/23 01:11:22;;;;;;;5.03;4.10;;;12.40;99.90;;;;;;5114237;27;20588;-82
2020/12/23 01:13:49;;;;;;;5.20;4.30;;;12.40;99.90;;;;;;5114400;27;20197;-81
2020/12/23 01:16:25;;;;;;;4.15;3.47;;;12.40;99.90;;;;;;5131200;27;20527;-81
2020/12/23 01:18:51;;;;;;;5.50;3.85;;;12.30;99.90;;;;;;5118412;27;20199;-81
2020/12/23 01:21:17;;;;;;;5.85;4.10;;;12.30;99.90;;;;;;5121285;27;20200;-81
2020/12/23 01:23:44;;;;;;;4.88;4.38;;;12.30;99.90;;;;;;5116905;27;20275;-81
2020/12/23 01:26:11;;;;;;;5.63;4.40;;;12.30;99.90;;;;;;5134463;27;20196;-81
2020/12/23 01:28:38;;;;;;;3.83;3.42;;;12.30;99.90;;;;;;5115847;27;20196;-81
2020/12/23 01:31:05;;;;;;;4.53;3.97;;;12.30;99.90;;;;;;5122089;27;20559;-83
2020/12/23 01:33:32;;;;;;;4.15;3.45;;;12.40;99.90;;;;;;5131186;27;20188;-82
2020/12/23 01:35:58;;;;;;;6.10;4.50;;;12.40;99.90;;;;;;5116466;27;20204;-83
2020/12/23 01:38:24;;;;;;;5.57;4.70;;;12.40;99.90;;;;;;5113734;27;20193;-83
2020/12/23 01:40:56;;;;;;;6.53;3.83;;;12.40;99.90;;;;;;5113611;28;20563;-83
2020/12/23 01:43:22;;;;;;;4.13;3.40;;;12.40;99.90;;;;;;5113798;27;20216;-82
2020/12/23 01:45:48;;;;;;;3.78;3.38;;;12.40;99.90;;;;;;5114787;27;20648;-84
2020/12/23 01:48:20;;;;;;;4.22;3.80;;;12.40;99.90;;;;;;5134525;27;20757;-84
2020/12/23 01:50:46;;;;;;;5.47;4.20;;;12.40;99.90;;;;;;5125796;27;20242;-84
2020/12/23 01:53:13;;;;;;;4.90;4.20;;;12.40;99.90;;;;;;5113999;28;20192;-84
2020/12/23 01:55:39;;;;;;;4.35;3.38;;;12.40;99.90;;;;;;5129450;27;20184;-85
2020/12/23 01:58:06;;;;;;;7.72;4.63;;;12.40;99.90;;;;;;5118289;27;20204;-85
2020/12/23 02:00:32;;;;;;;5.07;4.40;;;12.30;99.90;;;;;;5126341;27;20207;-84
2020/12/23 02:03:01;;;;;;;3.78;3.47;;;12.40;99.90;;;;;;5113283;28;20197;-84
2020/12/23 02:05:28;;;;;;;4.28;3.38;;;12.30;99.90;;;;;;5115831;27;20187;-82
2020/12/23 02:07:54;;;;;;;4.30;3.90;;;12.30;99.90;;;;;;5112848;28;20636;-81
2020/12/23 02:10:20;;;;;;;5.47;4.38;;;12.30;99.90;;;;;;5117812;27;20636;-83
2020/12/23 02:12:46;;;;;;;4.50;3.60;;;12.30;99.90;;;;;;5113292;27;20193;-84
2020/12/23 02:15:14;;;;;;;4.18;3.78;;;12.30;99.90;;;;;;5126793;27;20196;-83
2020/12/23 02:17:41;;;;;;;4.88;3.95;;;12.30;99.90;;;;;;5114473;27;20214;-82
2020/12/23 02:20:09;;;;;;;4.55;3.90;;;12.30;99.90;;;;;;5130848;27;20277;-82
2020/12/23 02:22:37;;;;;;;2.95;2.70;;;12.30;99.90;;;;;;5124285;27;20191;-83
2020/12/23 02:25:04;;;;;;;4.00;3.60;;;12.30;99.90;;;;;;5131483;27;20211;-82
2020/12/23 02:27:30;;;;;;;5.53;4.00;;;12.30;99.90;;;;;;5121582;27;20199;-81
2020/12/23 02:29:58;;;;;;;4.40;4.00;;;12.30;99.90;;;;;;5121059;27;20620;-80
2020/12/23 02:32:25;;;;;;;4.95;4.45;;;12.30;99.90;;;;;;5113686;28;20185;-82
2020/12/23 02:34:52;;;;;;;4.28;3.83;;;12.30;99.90;;;;;;5112761;27;20193;-81
2020/12/23 02:37:19;;;;;;;5.47;4.32;;;12.30;99.90;;;;;;5115659;27;20207;-80
2020/12/23 02:39:48;;;;;;;4.93;3.83;;;12.30;99.90;;;;;;5112619;28;20707;-80
2020/12/23 02:42:14;;;;;;;6.40;4.10;;;12.30;99.90;;;;;;5112523;28;20205;-79
2020/12/23 02:44:41;;;;;;;5.63;4.55;;;12.30;99.90;;;;;;5122168;28;20240;-80
2020/12/23 02:47:10;;;;;;;5.05;4.53;;;12.30;99.90;;;;;;5115604;27;20336;-82
2020/12/23 02:49:37;;;;;;;4.30;3.90;;;12.30;99.90;;;;;;5113337;28;20201;-83
2020/12/23 02:52:03;;;;;;;3.97;3.42;;;12.30;99.90;;;;;;5116228;28;20215;-82
2020/12/23 02:54:29;;;;;;;6.63;3.45;;;12.30;99.90;;;;;;5126236;27;20192;-85
2020/12/23 02:56:56;;;;;;;4.13;3.72;;;12.30;99.90;;;;;;5119538;28;20211;-85
2020/12/23 02:59:23;;;;;;;4.35;4.05;;;12.30;99.90;;;;;;5129340;27;20212;-85
2020/12/23 03:01:49;;;;;;;4.28;3.90;;;12.30;99.90;;;;;;5132788;28;20208;-84
2020/12/23 03:04:15;;;;;;;5.30;4.35;;;12.30;99.90;;;;;;5122837;27;20216;-84
2020/12/23 03:06:42;;;;;;;3.83;3.42;;;12.30;99.90;;;;;;5130006;28;20551;-84
2020/12/23 03:09:10;;;;;;;4.70;4.28;;;12.30;99.90;;;;;;5122880;27;20580;-83
2020/12/23 03:11:36;;;;;;;5.43;4.10;;;12.30;99.90;;;;;;5132587;27;20245;-82
2020/12/23 03:14:04;;;;;;;7.13;5.93;;;12.30;99.90;;;;;;5120713;27;20628;-84
2020/12/23 03:16:31;;;;;;;6.50;4.90;;;12.30;99.90;;;;;;5132703;27;20636;-84
2020/12/23 03:18:57;;;;;;;4.53;4.13;;;12.30;99.90;;;;;;5133160;27;20200;-84
2020/12/23 03:21:23;;;;;;;4.65;4.20;;;12.30;99.90;;;;;;5122006;27;20193;-84
2020/12/23 03:23:50;;;;;;;4.18;3.78;;;12.30;99.90;;;;;;5114774;28;20219;-84
2020/12/23 03:26:17;;;;;;;4.35;3.95;;;12.30;99.90;;;;;;5135593;27;20706;-84
2020/12/23 03:28:43;;;;;;;5.15;4.65;;;12.30;99.90;;;;;;5137248;27;20585;-84
2020/12/23 03:31:10;;;;;;;5.03;4.53;;;12.30;99.90;;;;;;5136933;27;20207;-82
2020/12/23 03:33:37;;;;;;;5.05;4.30;;;12.30;99.90;;;;;;5118015;27;20195;-83
2020/12/23 03:36:03;;;;;;;4.40;4.00;;;12.30;99.90;;;;;;5117746;27;20253;-84
2020/12/23 03:38:29;;;;;;;5.53;4.07;;;12.30;99.90;;;;;;5116207;27;20200;-84
2020/12/23 03:40:56;;;;;;;4.95;4.45;;;12.30;99.90;;;;;;5133374;27;20230;-83
2020/12/23 03:43:23;;;;;;;5.78;4.30;;;12.30;99.90;;;;;;5116006;27;20193;-84
2020/12/23 03:45:50;;;;;;;5.90;5.30;;;12.30;99.90;;;;;;5116834;28;20192;-85
2020/12/23 03:48:17;;;;;;;5.93;5.40;;;12.30;99.90;;;;;;5127982;27;20196;-84
2020/12/23 03:50:45;;;;;;;5.03;3.97;;;12.30;99.90;;;;;;5121371;27;20192;-85
2020/12/23 03:53:11;;;;;;;5.10;4.57;;;12.30;99.90;;;;;;5125068;27;20245;-85
2020/12/23 03:55:37;;;;;;;6.05;5.30;;;12.30;99.90;;;;;;5117893;27;20226;-85
2020/12/23 03:58:04;;;;;;;6.00;5.40;;;12.30;99.90;;;;;;5126205;27;20195;-84
2020/12/23 04:00:30;;;;;;;4.55;4.07;;;12.30;99.90;;;;;;5128793;27;20209;-84
2020/12/23 04:02:56;;;;;;;7.85;4.75;;;12.30;99.90;;;;;;5121546;27;20192;-82
2020/12/23 04:05:24;;;;;;;6.07;5.47;;;12.30;99.90;;;;;;5132238;27;20216;-81
2020/12/23 04:07:50;;;;;;;5.88;5.25;;;12.30;99.90;;;;;;5114877;28;20246;-82
2020/12/23 04:10:16;;;;;;;4.82;4.32;;;12.30;99.90;;;;;;5114727;28;20201;-82
2020/12/23 04:12:43;;;;;;;5.95;4.28;;;12.30;99.90;;;;;;5115166;28;20605;-84
2020/12/23 04:15:10;;;;;;;5.80;4.65;;;12.30;99.90;;;;;;5115456;28;20536;-83
2020/12/23 04:17:37;;;;;;;6.93;5.80;;;12.20;99.90;;;;;;5114518;28;20193;-82
2020/12/23 04:20:05;;;;;;;5.40;4.20;;;12.30;99.90;;;;;;5129347;27;20189;-82
2020/12/23 04:22:32;;;;;;;5.88;4.72;;;12.20;99.90;;;;;;5126472;27;20197;-82
2020/12/23 04:24:59;;;;;;;5.65;4.30;;;12.30;99.90;;;;;;5126867;27;20212;-84
2020/12/23 04:27:26;;;;;;;5.65;4.97;;;12.30;99.90;;;;;;5128795;27;20869;-83
2020/12/23 04:29:52;;;;;;;5.10;4.38;;;12.30;99.90;;;;;;5120022;27;20651;-83
2020/12/23 04:32:18;;;;;;;5.20;4.70;;;12.30;99.90;;;;;;5117363;27;20200;-83
2020/12/23 04:34:45;;;;;;;5.60;4.45;;;12.30;99.90;;;;;;5130782;27;20196;-83
2020/12/23 04:37:11;;;;;;;5.13;4.38;;;12.20;99.90;;;;;;5119850;27;20215;-86
2020/12/23 04:39:38;;;;;;;7.90;5.55;;;12.30;99.90;;;;;;5115367;27;20215;-86
2020/12/23 04:42:05;;;;;;;5.78;4.88;;;12.30;99.90;;;;;;5122413;27;20200;-85
2020/12/23 04:44:32;;;;;;;5.55;5.05;;;12.30;99.90;;;;;;5135423;27;20223;-84
2020/12/23 04:46:59;;;;;;;6.18;5.50;;;12.30;99.90;;;;;;5121523;27;20222;-85
2020/12/23 04:49:25;;;;;;;4.85;4.00;;;12.30;99.90;;;;;;5136186;27;20192;-85
2020/12/23 04:51:54;;;;;;;5.20;4.70;;;12.30;99.90;;;;;;5124185;27;20203;-85
2020/12/23 04:54:21;;;;;;;5.53;4.43;;;12.20;99.90;;;;;;5115742;27;20189;-84
2020/12/23 04:56:49;;;;;;;5.20;4.70;;;12.30;99.90;;;;;;5125178;27;20221;-84
2020/12/23 04:59:16;;;;;;;4.95;4.38;;;12.30;99.90;;;;;;5130692;27;20197;-84
2020/12/23 05:01:42;;;;;;;5.38;4.70;;;12.30;99.90;;;;;;5119441;27;20192;-84
2020/12/23 05:04:08;;;;;;;6.25;4.63;;;12.30;99.90;;;;;;5124956;27;20211;-84
2020/12/23 05:06:36;;;;;;;6.05;4.85;;;12.30;99.90;;;;;;5135308;27;20199;-83
2020/12/23 05:09:04;;;;;;;5.95;4.85;;;12.20;99.90;;;;;;5132706;27;20192;-83
2020/12/23 05:11:33;;;;;;;5.82;4.50;;;12.20;99.90;;;;;;5124062;27;20360;-83
2020/12/23 05:14:04;;;;;;;5.82;4.70;;;12.30;99.90;;;;;;5118372;27;20650;-83
2020/12/23 05:16:32;;;;;;;5.60;4.65;;;12.30;99.90;;;;;;5125778;27;20253;-82
2020/12/23 05:18:59;;;;;;;5.03;4.53;;;12.20;99.90;;;;;;5119239;27;20650;-80
2020/12/23 05:21:27;;;;;;;6.57;5.38;;;12.30;99.90;;;;;;5119916;27;20222;-80
2020/12/23 05:23:55;;;;;;;5.70;5.20;;;12.30;99.90;;;;;;5121688;27;20222;-79
2020/12/23 05:26:22;;;;;;;5.63;4.47;;;12.30;99.90;;;;;;5125073;27;20218;-79
2020/12/23 05:28:50;;;;;;;6.43;5.35;;;12.30;99.90;;;;;;5131294;27;20586;-80
2020/12/23 05:31:18;;;;;;;6.47;5.10;;;12.30;99.90;;;;;;5113634;27;20212;-80
2020/12/23 05:33:46;;;;;;;5.45;4.70;;;12.20;99.90;;;;;;5133724;27;20265;-80
2020/12/23 05:36:14;;;;;;;5.95;5.03;;;12.20;99.90;;;;;;5134473;27;20284;-80
2020/12/23 05:38:41;;;;;;;5.03;4.43;;;12.20;99.90;;;;;;5120303;27;20238;-80
2020/12/23 05:41:12;;;;;;;6.03;5.45;;;12.30;99.90;;;;;;5129612;27;20216;-79
2020/12/23 05:43:39;;;;;;;5.68;5.05;;;12.30;99.90;;;;;;5132382;27;20192;-79
2020/12/23 05:46:07;;;;;;;6.93;5.63;;;12.30;99.90;;;;;;5113297;27;20207;-80
2020/12/23 05:48:35;;;;;;;6.43;5.18;;;12.30;99.90;;;;;;5126443;27;20188;-84
2020/12/23 05:51:03;;;;;;;6.10;5.22;;;12.20;99.90;;;;;;5126545;27;20189;-84
2020/12/23 05:53:33;;;;;;;6.13;4.75;;;12.30;99.90;;;;;;5113421;28;20200;-79
2020/12/23 05:56:00;;;;;;;6.72;5.35;;;12.30;99.90;;;;;;5112994;28;20224;-79
2020/12/23 05:58:27;;;;;;;5.80;5.20;;;12.30;99.90;;;;;;5128422;27;20539;-80
2020/12/23 06:00:55;;;;;;;6.53;5.93;;;12.20;99.90;;;;;;5124128;27;20200;-79
2020/12/23 06:03:24;;;;;;;6.68;5.60;;;12.20;99.90;;;;;;5113470;27;20193;-79
2020/12/23 06:05:59;;;;;;;7.68;5.70;;;12.20;99.90;;;;;;5114283;27;20193;-80
2020/12/23 06:08:33;;;;;;;6.82;5.72;;;12.30;99.90;;;;;;5113295;27;20200;-81
2020/12/23 06:11:29;;;;;;;5.93;5.25;;;12.30;99.90;;;;;;5118560;27;20203;-81
2020/12/23 06:14:16;;;;;;;9.05;6.43;;;12.20;99.90;;;;;;5114087;27;20189;-83
2020/12/23 06:16:48;;;;;;;6.07;5.47;;;12.20;99.90;;;;;;5112690;27;20193;-81
2020/12/23 06:19:25;;;;;;;6.18;5.20;;;12.30;99.90;;;;;;5113321;28;20551;-81
2020/12/23 06:21:52;;;;;;;6.68;5.43;;;12.30;99.90;;;;;;5112796;28;20207;-83
2020/12/23 06:24:19;;;;;;;7.03;5.40;;;12.30;99.90;;;;;;5113016;28;20216;-83
2020/12/23 06:26:46;;;;;;;6.38;4.82;;;12.30;99.90;;;;;;5112371;28;20196;-83
2020/12/23 06:29:14;;;;;;;5.70;4.72;;;12.30;99.90;;;;;;5112988;27;20203;-83
2020/12/23 06:31:44;;;;;;;7.20;5.60;;;12.30;99.90;;;;;;5122472;27;20184;-83
2020/12/23 06:34:14;;;;;;;6.82;6.13;;;12.20;99.90;;;;;;5134524;27;20200;-83
2020/12/23 06:36:41;;;;;;;6.88;4.80;;;12.20;99.90;;;;;;5129129;27;20188;-83
2020/12/23 06:39:28;;;;;;;5.60;4.65;;;12.20;99.90;;;;;;5122583;27;20204;-83
2020/12/23 06:42:16;;;;;;;7.18;5.13;;;12.20;99.90;;;;;;5113312;28;20195;-83
2020/12/23 06:44:56;;;;;;;6.75;5.88;;;12.30;99.90;;;;;;5111526;28;20211;-83
2020/12/23 06:47:24;;;;;;;6.97;5.60;;;12.20;99.90;;;;;;5113740;28;20189;-83
2020/12/23 06:49:52;;;;;;;6.57;5.25;;;12.20;99.90;;;;;;5113500;28;20216;-84
2020/12/23 06:52:48;;;;;;;7.00;6.28;;;12.20;99.90;;;;;;5113064;28;20257;-84
2020/12/23 06:55:16;;;;;;;6.18;5.35;;;12.30;99.90;;;;;;5126081;27;20509;-85
2020/12/23 06:57:58;;;;;;;8.38;5.63;;;12.30;99.90;;;;;;5126245;28;20192;-84
2020/12/23 07:00:42;;;;;;;7.03;5.60;;;12.20;99.90;;;;;;5130169;27;20187;-82
2020/12/23 07:03:12;;;;;;;6.82;6.20;;;12.20;99.90;;;;;;5116529;27;20196;-82
2020/12/23 07:05:43;;;;;;;6.63;5.30;;;12.30;99.90;;;;;;5116804;28;20212;-82
2020/12/23 07:08:12;;;;;;;7.03;5.68;;;12.30;99.90;;;;;;5116789;27;20192;-80
2020/12/23 07:10:41;;;;;;;6.72;5.40;;;12.20;99.90;;;;;;5121729;27;20195;-82
2020/12/23 07:13:10;;;;;;;5.32;4.43;;;12.30;99.90;;;;;;5117525;27;20699;-82
2020/12/23 07:15:38;;;;;;;6.63;5.45;;;12.20;99.90;;;;;;5126656;27;20675;-82
2020/12/23 07:18:06;;;;;;;6.78;5.32;;;12.20;99.90;;;;;;5118594;27;20654;-81
2020/12/23 07:20:38;;;;;;;5.75;4.90;;;12.20;99.90;;;;;;5116642;27;20226;-82
2020/12/23 07:23:06;;;;;;;6.90;5.68;;;12.20;99.90;;;;;;5116351;28;20200;-84
2020/12/23 07:25:38;;;;;;;5.30;4.80;;;12.30;99.90;;;;;;5117752;27;20216;-83
2020/12/23 07:28:08;;;;;;;6.70;6.00;;;12.30;99.90;;;;;;5116436;28;20196;-80
2020/12/23 07:30:38;;;;;;;7.05;5.75;;;12.20;99.90;;;;;;5116893;27;20249;-80
2020/12/23 07:33:09;;;;;;;7.13;5.38;;;12.20;99.90;;;;;;5115933;28;20197;-82
2020/12/23 07:35:35;;;;;;;6.30;5.05;;;12.20;99.90;;;;;;5118371;27;20185;-82
2020/12/23 07:38:04;;;;;;;6.28;4.68;;;12.30;99.90;;;;;;5115160;28;20211;-82
2020/12/23 07:40:31;;;;;;;7.50;5.55;;;12.30;99.90;;;;;;5115622;28;20228;-83
2020/12/23 07:42:58;;;;;;;5.82;5.22;;;12.20;99.90;;;;;;5115495;28;20224;-81
2020/12/23 07:45:27;;;;;;;6.25;4.50;;;12.20;99.90;;;;;;5115551;28;20209;-79
2020/12/23 07:47:59;;;;;;;5.82;4.63;;;12.30;99.90;;;;;;5115903;28;20583;-79
2020/12/23 07:50:27;;;;;;;5.95;4.60;;;12.30;99.90;;;;;;5115264;27;20193;-79
2020/12/23 07:52:54;;;;;;;4.43;3.60;;;12.20;99.90;;;;;;5125463;27;20192;-79
2020/12/23 07:55:21;;;;;;;5.07;4.57;;;12.20;99.90;;;;;;5123848;27;20288;-80
2020/12/23 07:57:51;;;;;;;7.00;5.28;;;12.30;99.90;;;;;;5129076;27;20241;-79
2020/12/23 08:00:19;;;;;;;6.00;4.38;;;12.20;99.90;;;;;;5125456;27;20221;-75
2020/12/23 08:02:47;;;;;;;6.90;4.55;;;12.30;99.90;;;;;;5117643;27;20196;-84
2020/12/23 08:05:14;;;;;;;5.38;4.28;;;12.30;99.90;;;;;;5115689;28;20211;-82
2020/12/23 08:07:42;;;;;;;5.63;3.90;;;12.30;99.90;;;;;;5132090;27;20535;-82
2020/12/23 08:10:10;;;;;;;5.50;4.65;;;12.30;99.90;;;;;;5133937;27;20197;-82
2020/12/23 08:12:37;;;;;;;5.20;4.70;;;12.30;99.90;;;;;;5120281;27;20188;-79
2020/12/23 08:15:09;;;;;;;5.15;4.18;;;12.30;99.90;;;;;;5121554;27;20188;-86
2020/12/23 08:17:36;;;;;;;4.88;4.47;;;12.30;99.90;;;;;;5119288;27;20286;-84
2020/12/23 08:20:08;;;;;;;5.03;4.25;;;12.30;99.90;;;;;;5122085;27;20197;-84
2020/12/23 08:22:35;;;;;;;4.60;4.13;;;12.30;99.90;;;;;;5131775;27;20206;-84
2020/12/23 08:25:05;;;;;;;4.15;3.75;;;12.30;99.90;;;;;;5127624;27;20552;-84
2020/12/23 08:27:32;;;;;;;7.60;4.97;;;12.30;99.90;;;;;;5136018;27;20204;-84
2020/12/23 08:30:00;;;;;;;5.78;4.72;;;12.30;99.90;;;;;;5133681;27;20244;-84
2020/12/23 08:32:31;;;;;;;5.50;4.15;;;12.30;99.90;;;;;;5114389;28;20257;-84
2020/12/23 08:35:01;;;;;;;5.32;4.82;;;12.30;99.90;;;;;;5113799;28;20193;-83
2020/12/23 08:37:29;;;;;;;5.15;4.10;;;12.30;99.90;;;;;;5114618;28;20192;-83
2020/12/23 08:39:57;;;;;;;4.95;4.20;;;12.30;99.90;;;;;;5117144;27;20231;-83
2020/12/23 08:42:24;;;;;;;4.95;3.85;;;12.30;99.90;;;;;;5115143;28;20207;-83
2020/12/23 08:44:53;;;;;;;4.40;3.33;;;12.30;99.90;;;;;;5117341;27;20209;-83
2020/12/23 08:47:33;;;;;;;3.65;3.10;;;12.30;99.90;;;;;;5113953;28;20196;-83
2020/12/23 08:50:01;;;;;;;3.92;3.53;;;12.30;99.90;;;;;;5114223;28;20228;-83
2020/12/23 08:52:28;;;;;;;3.53;3.22;;;12.30;99.90;;;;;;5114360;28;20226;-83
2020/12/23 08:54:55;;;;;;;4.50;4.00;;;12.30;99.90;;;;;;5114190;28;20610;-83
2020/12/23 08:57:26;;;;;;;5.05;4.38;;;12.30;99.90;;;;;;5114668;27;20203;-83
2020/12/23 08:59:54;;;;;;;5.32;4.22;;;12.30;99.90;;;;;;5114348;28;20313;-80
2020/12/23 09:02:20;;;;;;;4.68;4.05;;;12.30;99.90;;;;;;5120587;27;20248;-79
2020/12/23 09:04:47;;;;;;;4.15;3.75;;;12.30;99.90;;;;;;5124631;27;20208;-82
2020/12/23 09:07:21;;;;;;;4.18;3.15;;;12.30;99.90;;;;;;5114520;27;20211;-81
2020/12/23 09:09:48;;;;;;;7.38;6.32;;;12.30;99.90;;;;;;5116395;27;20185;-85
2020/12/23 09:12:22;;;;;;;9.27;6.75;;;12.20;99.90;;;;;;5121714;27;20192;-85
2020/12/23 09:14:48;;;;;;;10.95;6.95;;;12.30;99.90;;;;;;5117135;27;20196;-84
2020/12/23 09:17:22;;;;;;;8.38;5.80;;;12.40;99.90;;;;;;5121577;27;20256;-83
2020/12/23 09:19:59;;;;;;;6.63;5.63;;;12.30;99.90;;;;;;5134984;27;20195;-84
2020/12/23 09:22:33;;;;;;;8.18;5.70;;;12.40;99.90;;;;;;5125881;27;20196;-84
2020/12/23 09:25:15;;;;;;;8.35;6.65;;;12.40;99.90;;;;;;5114632;28;20207;-84
2020/12/23 09:27:42;;;;;;;5.22;4.72;;;12.40;99.90;;;;;;5118953;27;20196;-84
2020/12/23 09:30:09;;;;;;;6.18;5.00;;;12.40;99.90;;;;;;5132089;27;20601;-84
2020/12/23 09:32:36;;;;;;;7.97;4.63;;;12.30;99.90;;;;;;5132925;27;20188;-84
2020/12/23 09:35:15;;;;;;;7.22;5.00;;;12.30;99.90;;;;;;5119234;27;20200;-85
2020/12/23 09:37:43;;;;;;;8.93;4.38;;;12.30;99.90;;;;;;5132964;27;20192;-84
2020/12/23 09:40:10;;;;;;;6.57;5.07;;;12.40;99.90;;;;;;5128821;27;20224;-84
2020/12/23 09:42:38;;;;;;;5.13;4.63;;;12.30;99.90;;;;;;5114550;28;20201;-85
2020/12/23 09:45:06;;;;;;;5.60;4.32;;;12.30;99.90;;;;;;5121387;27;20215;-83
2020/12/23 09:47:32;;;;;;;5.60;3.85;;;12.40;99.90;;;;;;5120518;27;20200;-84
2020/12/23 09:50:00;;;;;;;5.18;4.57;;;12.40;99.90;;;;;;5124432;27;20188;-85
2020/12/23 09:52:27;;;;;;;5.32;4.82;;;12.40;99.90;;;;;;5112727;27;20193;-77
2020/12/23 09:54:53;;;;;;;4.32;3.92;;;12.40;99.90;;;;;;5132629;27;20206;-81
2020/12/23 09:57:19;;;;;;;4.20;3.88;;;12.40;99.90;;;;;;5126674;27;20916;-79
2020/12/23 09:59:46;;;;;;;6.95;6.25;;;12.40;99.90;;;;;;5113833;27;20204;-79
2020/12/23 10:02:12;;;;;;;10.73;7.95;;;12.40;99.90;;;;;;5122080;27;20975;-79
2020/12/23 10:04:39;;;;;;;8.75;5.55;;;12.40;99.90;;;;;;5124301;27;20525;-81
2020/12/23 10:07:05;;;;;;;6.47;5.53;;;12.50;99.90;;;;;;5113574;27;20197;-81
2020/12/23 10:09:31;;;;;;;6.60;5.68;;;12.50;99.90;;;;;;5132334;27;20196;-81
2020/12/23 10:11:57;;;;;;;7.75;6.30;;;12.50;99.90;;;;;;5114415;27;20205;-81
2020/12/23 10:14:23;;;;;;;5.45;4.93;;;12.50;99.90;;;;;;5113073;28;20185;-80
2020/12/23 10:16:51;;;;;;;5.22;4.72;;;12.50;99.90;;;;;;5112787;28;20192;-81
2020/12/23 10:19:17;;;;;;;6.38;4.45;;;12.50;99.90;;;;;;5131267;27;20199;-81
2020/12/23 10:21:43;;;;;;;6.22;4.38;;;12.50;99.90;;;;;;5119783;27;20193;-79
2020/12/23 10:24:09;;;;;;;4.85;4.00;;;12.50;99.90;;;;;;5112971;28;20267;-80
2020/12/23 10:26:35;;;;;;;5.20;4.38;;;12.60;99.90;;;;;;5113729;28;20680;-79
2020/12/23 10:29:02;;;;;;;4.55;4.10;;;12.60;99.90;;;;;;5112490;28;20200;-80
2020/12/23 10:31:28;;;;;;;6.35;5.10;;;12.60;99.90;;;;;;5112238;28;20200;-80
2020/12/23 10:33:55;;;;;;;5.15;4.75;;;12.60;99.90;;;;;;5127666;27;20196;-79
2020/12/23 10:36:21;;;;;;;4.95;4.47;;;12.60;99.90;;;;;;5120586;27;20197;-79
2020/12/23 10:38:47;;;;;;;4.72;4.18;;;12.60;99.90;;;;;;5113416;28;20193;-79
2020/12/23 10:41:18;;;;;;;6.13;4.05;;;12.60;99.90;;;;;;5111572;28;20232;-79
2020/12/23 10:43:44;;;;;;;4.57;4.13;;;12.60;99.90;;;;;;5145643;27;20191;-79
2020/12/23 10:46:10;;;;;;;7.53;3.90;;;12.60;99.90;;;;;;5129219;27;20216;-80
2020/12/23 10:48:36;;;;;;;4.13;3.78;;;12.60;99.90;;;;;;5130979;27;20200;-80
2020/12/23 10:51:04;;;;;;;3.65;3.22;;;12.60;99.90;;;;;;5128407;27;20204;-80
2020/12/23 10:53:30;;;;;;;5.25;3.95;;;12.60;99.90;;;;;;5125874;28;20233;-80
2020/12/23 10:55:57;;;;;;;4.43;3.80;;;12.60;99.90;;;;;;5128796;27;20532;-79
2020/12/23 10:58:23;;;;;;;6.20;4.45;;;12.60;99.90;;;;;;5127312;27;20223;-80
2020/12/23 11:00:50;;;;;;;4.93;3.75;;;12.60;99.90;;;;;;5113579;28;20247;-81
2020/12/23 11:03:16;;;;;;;4.35;3.92;;;12.60;99.90;;;;;;5130084;27;20206;-80
2020/12/23 11:05:42;;;;;;;3.97;3.20;;;12.60;99.90;;;;;;5132092;27;20215;-80
2020/12/23 11:08:10;;;;;;;4.22;3.83;;;12.60;99.90;;;;;;5127339;27;20206;-83
2020/12/23 11:10:36;;;;;;;4.00;3.40;;;12.60;99.90;;;;;;5114206;27;20205;-79
2020/12/23 11:13:03;;;;;;;4.10;3.70;;;12.70;99.90;;;;;;5114124;28;20199;-79
2020/12/23 11:15:29;;;;;;;4.35;3.33;;;12.70;99.90;;;;;;5115566;27;20253;-82
2020/12/23 11:17:55;;;;;;;3.95;3.50;;;12.60;99.90;;;;;;5113264;28;20283;-79
2020/12/23 11:20:22;;;;;;;3.95;2.83;;;12.70;99.90;;;;;;5128116;27;20204;-82
2020/12/23 11:22:48;;;;;;;3.22;2.92;;;12.70;99.90;;;;;;5118919;27;20201;-81
2020/12/23 11:25:15;;;;;;;3.92;3.00;;;12.70;99.90;;;;;;5112147;28;20220;-80
2020/12/23 11:27:41;;;;;;;3.25;2.70;;;12.70;99.90;;;;;;5111966;28;20575;-81
2020/12/23 11:30:08;;;;;;;3.55;3.15;;;12.70;99.90;;;;;;5113052;28;20246;-81
2020/12/23 11:32:34;;;;;;;2.70;2.50;;;12.70;99.90;;;;;;5120886;27;20196;-81
2020/12/23 11:35:00;;;;;;;4.47;3.63;;;12.70;99.90;;;;;;5132503;27;20191;-81
2020/12/23 11:37:30;;;;;;;3.25;2.95;;;12.70;99.90;;;;;;5130178;27;20248;-81
2020/12/23 11:39:56;;;;;;;3.20;2.90;;;12.70;99.90;;;;;;5129833;27;20228;-81
2020/12/23 11:42:23;;;;;;;2.83;2.55;;;12.70;99.90;;;;;;5116353;28;20623;-81
2020/12/23 11:44:50;;;;;;;3.58;3.05;;;12.70;99.90;;;;;;5118933;27;20240;-84
2020/12/23 11:47:17;;;;;;;3.45;3.15;;;12.70;99.90;;;;;;5128821;27;20236;-83
2020/12/23 11:49:43;;;;;;;3.38;2.70;;;12.80;99.90;;;;;;5135041;27;20199;-81
2020/12/23 11:52:10;;;;;;;4.68;2.90;;;12.70;99.90;;;;;;5121910;27;20204;-82
2020/12/23 11:54:37;;;;;;;3.33;3.03;;;12.70;99.90;;;;;;5133760;27;20192;-80
2020/12/23 11:57:04;;;;;;;3.15;2.85;;;12.70;99.90;;;;;;5127114;27;20554;-79
2020/12/23 11:59:31;;;;;;;3.58;2.28;;;12.70;99.90;;;;;;5134859;27;20275;-78
2020/12/23 12:01:57;;;;;;;3.55;2.30;;;12.70;99.90;;;;;;5133192;27;20732;-81
2020/12/23 12:04:24;;;;;;;4.80;3.10;;;12.80;99.90;;;;;;5121413;27;20208;-84
2020/12/23 12:06:54;;;;;;;2.80;2.60;;;12.80;99.90;;;;;;5140625;27;20185;-83
2020/12/23 12:09:21;;;;;;;2.50;2.30;;;12.80;99.90;;;;;;5118797;27;20201;-84
2020/12/23 12:11:51;;;;;;;2.45;2.25;;;12.80;99.90;;;;;;5130595;27;20219;-84
2020/12/23 12:14:17;;;;;;;3.20;2.40;;;12.80;99.90;;;;;;5123853;27;20575;-83
2020/12/23 12:16:45;;;;;;;2.78;2.20;;;12.80;99.90;;;;;;5133648;27;20280;-83
2020/12/23 12:19:11;;;;;;;2.40;2.20;;;12.80;99.90;;;;;;5132330;27;20210;-83
2020/12/23 12:21:37;;;;;;;2.38;2.17;;;12.80;99.90;;;;;;5115617;28;20206;-82
2020/12/23 12:24:04;;;;;;;2.35;2.15;;;12.80;99.90;;;;;;5120588;27;20218;-79
2020/12/23 12:26:31;;;;;;;2.40;2.20;;;12.80;99.90;;;;;;5114489;28;20197;-83
2020/12/23 12:28:57;;;;;;;2.55;2.10;;;12.80;99.90;;;;;;5121501;27;20687;-82
2020/12/23 12:31:24;;;;;;;2.88;1.90;;;12.90;99.90;;;;;;5128650;27;20692;-81
2020/12/23 12:33:51;;;;;;;2.85;2.22;;;12.90;99.90;;;;;;5135641;27;20208;-83
2020/12/23 12:36:17;;;;;;;2.00;1.83;;;12.90;99.90;;;;;;5135154;27;20275;-84
2020/12/23 12:38:43;;;;;;;3.80;2.22;;;12.90;99.90;;;;;;5116013;27;20540;-83
2020/12/23 12:41:10;;;;;;;2.00;1.80;;;12.90;99.90;;;;;;5125541;27;20319;-81
2020/12/23 12:43:36;;;;;;;2.00;1.52;;;12.90;99.90;;;;;;5124723;27;20201;-80
2020/12/23 12:46:03;;;;;;;1.58;1.48;;;12.90;99.90;;;;;;5118385;27;20280;-83
2020/12/23 12:48:29;;;;;;;2.58;2.10;;;12.90;99.90;;;;;;5127268;27;20236;-81
2020/12/23 12:50:56;;;;;;;2.17;1.98;;;12.90;99.90;;;;;;5132385;27;20199;-83